Time;durP1;ratioP1;P1;durP2;ratioP2;P2;SDS_P1;SDS_P2;PMS_P1;PMS_P2;Temp;Humidity;BMP_temperature;BMP_pressure;BME280_temperature;BME280_humidity;BME280_pressure;Samples;Min_cycle;Max_cycle;Signal;HPM_P1;HPM_P2
2024/01/18 00:01:28;;;;;;;4.72;2.42;;;23.20;41.90;;;;;;6275698;27;80462;-61
2024/01/18 00:04:28;;;;;;;5.30;2.88;;;23.20;42.00;;;;;;6275847;27;80769;-61
2024/01/18 00:07:29;;;;;;;2.63;2.10;;;23.10;41.80;;;;;;6267215;27;80398;-60
2024/01/18 00:10:30;;;;;;;3.63;2.30;;;23.10;42.00;;;;;;6250077;27;80446;-61
2024/01/18 00:13:31;;;;;;;2.75;2.10;;;23.10;41.70;;;;;;6250512;27;80664;-60
2024/01/18 00:16:33;;;;;;;3.20;2.30;;;23.10;41.60;;;;;;6251460;27;84249;-61
2024/01/18 00:19:33;;;;;;;3.70;2.45;;;23.10;41.50;;;;;;6250748;27;80517;-62
2024/01/18 00:22:34;;;;;;;2.33;2.13;;;23.10;41.40;;;;;;6261845;27;81109;-62
2024/01/18 00:25:34;;;;;;;2.95;2.17;;;23.20;41.70;;;;;;6249810;27;80554;-62
2024/01/18 00:28:35;;;;;;;3.60;2.33;;;23.10;41.80;;;;;;6258245;27;82598;-61
2024/01/18 00:31:35;;;;;;;4.53;2.60;;;23.10;41.80;;;;;;6266963;27;80536;-62
2024/01/18 00:34:36;;;;;;;4.40;2.33;;;23.10;42.10;;;;;;6246714;27;83143;-60
2024/01/18 00:37:36;;;;;;;2.72;2.40;;;23.10;42.40;;;;;;6259374;27;80810;-61
2024/01/18 00:40:37;;;;;;;3.13;2.55;;;23.10;42.40;;;;;;6259653;27;81456;-61
2024/01/18 00:43:39;;;;;;;3.70;2.72;;;23.10;42.60;;;;;;6273976;27;80500;-62
2024/01/18 00:46:39;;;;;;;4.88;2.97;;;23.10;42.70;;;;;;6272456;27;80764;-61
2024/01/18 00:49:40;;;;;;;5.70;2.97;;;23.10;42.80;;;;;;6268946;27;80726;-59
2024/01/18 00:52:40;;;;;;;3.60;2.67;;;23.10;42.90;;;;;;6267955;27;81493;-62
2024/01/18 00:55:41;;;;;;;5.28;2.83;;;23.10;42.80;;;;;;6272985;27;82707;-61
2024/01/18 00:58:41;;;;;;;4.22;2.72;;;23.10;42.80;;;;;;6271917;27;81390;-59
2024/01/18 01:01:42;;;;;;;4.75;3.17;;;23.10;42.70;;;;;;6271166;27;80938;-60
2024/01/18 01:04:42;;;;;;;4.72;3.30;;;23.10;42.80;;;;;;6273286;27;80920;-59
2024/01/18 01:07:43;;;;;;;5.45;3.33;;;23.10;42.80;;;;;;6262844;27;80098;-60
2024/01/18 01:10:43;;;;;;;4.00;2.40;;;23.10;42.80;;;;;;6267713;27;80617;-59
2024/01/18 01:13:44;;;;;;;3.67;2.83;;;23.10;42.80;;;;;;6268193;27;80432;-60
2024/01/18 01:16:45;;;;;;;4.28;3.03;;;23.00;42.80;;;;;;6249652;27;81245;-60
2024/01/18 01:19:45;;;;;;;3.75;2.50;;;23.00;42.70;;;;;;6247713;27;81088;-60
2024/01/18 01:22:46;;;;;;;4.38;2.58;;;23.00;42.50;;;;;;6248166;27;81046;-60
2024/01/18 01:25:47;;;;;;;4.55;3.10;;;23.10;42.50;;;;;;6249121;27;80146;-60
2024/01/18 01:28:50;;;;;;;3.72;2.50;;;23.00;42.50;;;;;;6248575;27;80708;-60
2024/01/18 01:31:51;;;;;;;3.15;2.40;;;23.00;42.50;;;;;;6263499;27;81327;-60
2024/01/18 01:34:52;;;;;;;4.18;2.72;;;23.00;42.60;;;;;;6218742;27;1151893;-60
2024/01/18 01:37:53;;;;;;;3.53;2.30;;;23.00;42.50;;;;;;6256662;27;80326;-60
2024/01/18 01:40:53;;;;;;;3.60;2.28;;;23.00;42.50;;;;;;6250104;27;81550;-60
2024/01/18 01:43:54;;;;;;;4.07;2.55;;;23.00;42.40;;;;;;6251720;27;80374;-59
2024/01/18 01:46:54;;;;;;;3.35;2.17;;;23.00;42.50;;;;;;6254576;27;82073;-60
2024/01/18 01:49:55;;;;;;;3.08;2.08;;;23.00;42.50;;;;;;6267505;27;80152;-59
2024/01/18 01:52:55;;;;;;;3.08;2.00;;;23.00;42.60;;;;;;6254838;27;81098;-61
2024/01/18 01:55:56;;;;;;;4.18;2.17;;;23.00;42.60;;;;;;6252975;27;81204;-59
2024/01/18 01:58:56;;;;;;;2.80;1.98;;;23.00;42.60;;;;;;6253417;27;81039;-62
2024/01/18 02:01:57;;;;;;;2.53;1.80;;;23.00;42.50;;;;;;6258443;27;80174;-63
2024/01/18 02:04:58;;;;;;;4.88;1.70;;;23.00;42.90;;;;;;6274385;27;80450;-63
2024/01/18 02:07:59;;;;;;;2.92;1.88;;;23.00;43.30;;;;;;6264898;27;80735;-61
2024/01/18 02:10:59;;;;;;;2.75;1.83;;;23.00;43.30;;;;;;6260407;27;80473;-61
2024/01/18 02:14:00;;;;;;;3.70;2.00;;;22.90;43.50;;;;;;6263836;27;80733;-62
2024/01/18 02:17:00;;;;;;;2.85;1.98;;;22.90;43.40;;;;;;6268679;27;80320;-61
2024/01/18 02:20:01;;;;;;;1.92;1.58;;;22.90;43.50;;;;;;6268621;27;81281;-62
2024/01/18 02:23:01;;;;;;;2.10;1.60;;;22.90;43.50;;;;;;6277247;27;82051;-62
2024/01/18 02:26:01;;;;;;;2.58;1.77;;;22.90;43.80;;;;;;6264638;27;86835;-49
2024/01/18 02:29:02;;;;;;;2.08;1.65;;;22.90;43.60;;;;;;6275281;27;81575;-48
2024/01/18 02:32:03;;;;;;;1.75;1.40;;;22.90;43.60;;;;;;6277491;27;80559;-49
2024/01/18 02:35:03;;;;;;;2.15;1.60;;;22.90;43.40;;;;;;6276316;27;80397;-47
2024/01/18 02:38:04;;;;;;;1.95;1.48;;;22.90;43.70;;;;;;6276397;27;80374;-47
2024/01/18 02:41:04;;;;;;;1.85;1.50;;;22.90;43.60;;;;;;6276741;27;82303;-50
2024/01/18 02:44:04;;;;;;;3.45;1.85;;;22.90;43.70;;;;;;6257097;27;80524;-48
2024/01/18 02:47:05;;;;;;;2.97;1.65;;;22.90;43.70;;;;;;6256895;27;80274;-47
2024/01/18 02:50:05;;;;;;;1.30;1.20;;;22.90;43.90;;;;;;6257293;27;82273;-46
2024/01/18 02:53:06;;;;;;;2.08;1.38;;;22.90;43.90;;;;;;6274950;27;80432;-48
2024/01/18 02:56:06;;;;;;;1.60;1.40;;;22.90;44.10;;;;;;6251154;27;83312;-47
2024/01/18 02:59:07;;;;;;;2.42;1.58;;;22.90;44.00;;;;;;6256276;27;81044;-50
2024/01/18 03:02:08;;;;;;;1.23;1.13;;;22.90;44.20;;;;;;6274991;27;81168;-48
2024/01/18 03:05:08;;;;;;;1.83;1.48;;;22.90;44.20;;;;;;6275319;27;80756;-51
2024/01/18 03:08:09;;;;;;;1.27;1.13;;;22.90;44.30;;;;;;6275345;27;80543;-48
2024/01/18 03:11:09;;;;;;;1.52;1.10;;;22.90;44.60;;;;;;6273582;27;81083;-50
2024/01/18 03:14:10;;;;;;;2.75;1.35;;;22.90;44.40;;;;;;6272139;27;80371;-52
2024/01/18 03:17:10;;;;;;;1.25;1.15;;;22.90;44.30;;;;;;6275863;27;81669;-51
2024/01/18 03:20:11;;;;;;;2.53;1.52;;;22.90;44.30;;;;;;6273850;27;80565;-59
2024/01/18 03:23:11;;;;;;;2.28;1.20;;;22.90;44.30;;;;;;6274709;27;80324;-58
2024/01/18 03:26:12;;;;;;;1.58;1.38;;;22.90;44.30;;;;;;6274269;27;81527;-58
2024/01/18 03:29:12;;;;;;;2.03;1.10;;;22.90;44.50;;;;;;6275346;27;80779;-59
2024/01/18 03:32:13;;;;;;;1.13;1.00;;;22.90;44.50;;;;;;6271065;27;81953;-59
2024/01/18 03:35:13;;;;;;;1.20;1.05;;;22.90;44.60;;;;;;6275959;27;80792;-60
2024/01/18 03:38:14;;;;;;;1.60;1.30;;;22.90;44.50;;;;;;6249954;27;83090;-49
2024/01/18 03:41:14;;;;;;;2.00;0.93;;;22.90;44.50;;;;;;6251179;27;80685;-50
2024/01/18 03:44:15;;;;;;;2.05;1.20;;;22.80;44.60;;;;;;6262514;27;84616;-50
2024/01/18 03:47:15;;;;;;;1.30;1.08;;;22.90;44.70;;;;;;6250757;27;81310;-51
2024/01/18 03:50:16;;;;;;;1.20;1.00;;;22.80;44.80;;;;;;6264252;27;80400;-49
2024/01/18 03:53:18;;;;;;;1.38;1.00;;;22.90;45.40;;;;;;6276408;27;80434;-49
2024/01/18 03:56:18;;;;;;;1.90;1.30;;;22.80;45.00;;;;;;6276075;27;80903;-50
2024/01/18 03:59:23;;;;;;;2.65;1.05;;;22.80;45.00;;;;;;6275531;27;81208;-51
2024/01/18 04:02:25;;;;;;;0.87;0.77;;;22.80;45.00;;;;;;6267785;27;80293;-49
2024/01/18 04:05:25;;;;;;;1.40;1.00;;;22.80;44.90;;;;;;6250821;27;82022;-50
2024/01/18 04:08:26;;;;;;;0.82;0.82;;;22.80;44.80;;;;;;6254599;27;80994;-49
2024/01/18 04:11:26;;;;;;;2.05;0.80;;;22.80;44.80;;;;;;6261572;27;81659;-49
2024/01/18 04:14:27;;;;;;;3.40;0.80;;;22.80;44.80;;;;;;6256980;27;82168;-51
2024/01/18 04:17:28;;;;;;;0.80;0.80;;;22.90;44.80;;;;;;6267625;27;87940;-50
2024/01/18 04:20:29;;;;;;;1.85;1.17;;;22.90;44.90;;;;;;6262300;27;83110;-51
2024/01/18 04:23:30;;;;;;;1.00;0.90;;;22.90;44.90;;;;;;6263638;27;80604;-50
2024/01/18 04:26:33;;;;;;;1.20;1.10;;;22.90;44.70;;;;;;6259722;27;80435;-49
2024/01/18 04:29:34;;;;;;;1.25;1.13;;;22.90;44.80;;;;;;6259627;27;80196;-51
2024/01/18 04:32:34;;;;;;;1.40;0.98;;;22.90;44.70;;;;;;6258401;27;81042;-49
2024/01/18 04:35:35;;;;;;;4.88;1.10;;;22.80;44.70;;;;;;6264162;27;80346;-53
2024/01/18 04:38:35;;;;;;;1.33;1.10;;;22.90;44.70;;;;;;6250170;27;80438;-59
2024/01/18 04:41:36;;;;;;;2.80;1.15;;;22.90;44.70;;;;;;6249455;27;81650;-58
2024/01/18 04:44:37;;;;;;;3.45;1.27;;;22.90;45.00;;;;;;6250419;27;81270;-55
2024/01/18 04:47:37;;;;;;;3.15;0.85;;;22.90;45.40;;;;;;6262251;27;80285;-59
2024/01/18 04:50:38;;;;;;;4.47;1.20;;;22.90;44.80;;;;;;6251011;27;80855;-48
2024/01/18 04:53:39;;;;;;;1.23;0.90;;;22.90;44.70;;;;;;6263283;27;80402;-53
2024/01/18 04:56:40;;;;;;;1.67;0.90;;;22.90;45.60;;;;;;6260348;27;81581;-48
2024/01/18 04:59:40;;;;;;;28.92;1.50;;;22.90;46.00;;;;;;6271705;27;80503;-50
2024/01/18 05:02:41;;;;;;;1.25;0.85;;;22.90;46.60;;;;;;6269889;27;83361;-48
2024/01/18 05:05:41;;;;;;;1.50;1.02;;;22.90;47.40;;;;;;6269014;27;81670;-49
2024/01/18 05:08:42;;;;;;;2.92;1.20;;;22.90;48.20;;;;;;6265587;27;84914;-47
2024/01/18 05:11:43;;;;;;;3.15;0.82;;;23.00;47.90;;;;;;6261626;27;80359;-61
2024/01/18 05:14:43;;;;;;;1.67;1.15;;;23.00;48.90;;;;;;6254692;27;80393;-61
2024/01/18 05:17:46;;;;;;;5.57;1.33;;;23.00;48.60;;;;;;6260819;27;80648;-62
2024/01/18 05:20:48;;;;;;;2.25;1.00;;;23.10;48.50;;;;;;6263747;27;82636;-61
2024/01/18 05:23:49;;;;;;;6.05;1.30;;;23.10;48.80;;;;;;6272025;27;81271;-64
2024/01/18 05:26:49;;;;;;;6.05;1.92;;;23.10;49.10;;;;;;6263140;27;80155;-63
2024/01/18 05:29:51;;;;;;;2.53;1.17;;;23.10;48.80;;;;;;6263540;27;80396;-59
2024/01/18 05:32:51;;;;;;;1.40;1.08;;;23.20;48.40;;;;;;6256889;27;87258;-59
2024/01/18 05:35:52;;;;;;;14.85;1.80;;;23.20;48.30;;;;;;6277527;27;80631;-59
2024/01/18 05:38:52;;;;;;;4.03;1.00;;;23.20;48.20;;;;;;6275084;27;80882;-61
2024/01/18 05:41:53;;;;;;;8.77;1.33;;;23.20;47.80;;;;;;6258583;27;83963;-61
2024/01/18 05:44:53;;;;;;;5.40;1.40;;;23.20;47.40;;;;;;6253724;27;80496;-59
2024/01/18 05:47:54;;;;;;;2.22;1.30;;;23.20;47.30;;;;;;6253556;27;82198;-60
2024/01/18 05:50:54;;;;;;;1.92;1.20;;;23.20;47.20;;;;;;6253535;27;80837;-61
2024/01/18 05:53:55;;;;;;;1.83;1.08;;;23.20;47.20;;;;;;6256840;27;80463;-60
2024/01/18 05:56:55;;;;;;;2.22;1.10;;;23.20;47.20;;;;;;6262335;27;85455;-59
2024/01/18 05:59:56;;;;;;;1.67;1.08;;;23.20;47.10;;;;;;6263803;27;80643;-60
2024/01/18 06:02:56;;;;;;;6.47;1.67;;;23.20;46.60;;;;;;6260265;27;80882;-60
2024/01/18 06:05:58;;;;;;;5.68;1.40;;;23.20;46.80;;;;;;6265263;27;80301;-54
2024/01/18 06:08:58;;;;;;;3.88;1.63;;;23.10;46.70;;;;;;6257277;27;80787;-55
2024/01/18 06:11:59;;;;;;;5.43;1.80;;;23.20;46.60;;;;;;6269408;27;81860;-53
2024/01/18 06:14:59;;;;;;;4.28;1.58;;;23.10;46.50;;;;;;6265405;27;80958;-54
2024/01/18 06:18:04;;;;;;;6.38;1.83;;;23.20;46.40;;;;;;6272902;27;81194;-54
2024/01/18 06:21:04;;;;;;;5.18;2.08;;;23.10;46.30;;;;;;6266278;27;80442;-58
2024/01/18 06:24:04;;;;;;;4.82;1.70;;;23.10;46.10;;;;;;6276343;27;80445;-57
2024/01/18 06:27:05;;;;;;;5.80;2.00;;;23.10;46.00;;;;;;6274607;27;83564;-56
2024/01/18 06:30:10;;;;;;;5.25;2.38;;;23.10;45.80;;;;;;6273764;27;80550;-56
2024/01/18 06:33:10;;;;;;;4.45;2.30;;;23.20;45.80;;;;;;6272737;27;81553;-57
2024/01/18 06:36:14;;;;;;;3.33;1.90;;;23.10;45.70;;;;;;6273720;27;80722;-55
2024/01/18 06:39:15;;;;;;;4.18;1.83;;;23.10;45.60;;;;;;6275037;27;80690;-56
2024/01/18 06:42:16;;;;;;;5.97;2.05;;;23.10;45.60;;;;;;6275452;27;80738;-57
2024/01/18 06:45:17;;;;;;;3.65;2.25;;;23.10;45.40;;;;;;6274290;27;81391;-51
2024/01/18 06:48:17;;;;;;;9.60;2.65;;;23.10;45.40;;;;;;6275743;27;80287;-54
2024/01/18 06:51:18;;;;;;;6.80;2.85;;;22.90;45.20;;;;;;6272040;27;80169;-57
2024/01/18 06:54:21;;;;;;;8.15;2.78;;;22.90;45.40;;;;;;6271600;27;80618;-57
2024/01/18 06:57:21;;;;;;;5.07;2.58;;;22.90;45.30;;;;;;6267977;27;85980;-58
2024/01/18 07:00:24;;;;;;;8.85;3.42;;;22.90;45.20;;;;;;6273722;27;80766;-64
2024/01/18 07:03:29;;;;;;;6.45;2.80;;;22.90;45.20;;;;;;6274017;27;80640;-62
2024/01/18 07:06:29;;;;;;;9.52;2.72;;;23.00;45.20;;;;;;6270692;27;80834;-61
2024/01/18 07:09:32;;;;;;;6.68;2.75;;;22.90;45.10;;;;;;6272323;27;81238;-60
2024/01/18 07:12:32;;;;;;;7.00;3.00;;;22.90;45.20;;;;;;6271647;27;80707;-59
2024/01/18 07:15:33;;;;;;;6.00;2.63;;;22.70;44.80;;;;;;6273877;27;80364;-60
2024/01/18 07:18:33;;;;;;;6.45;2.70;;;22.60;45.30;;;;;;6271876;27;81422;-61
2024/01/18 07:21:34;;;;;;;5.30;2.63;;;22.60;45.30;;;;;;6270592;27;80586;-60
2024/01/18 07:24:34;;;;;;;5.72;2.78;;;22.70;45.40;;;;;;6264029;27;80357;-60
2024/01/18 07:27:35;;;;;;;8.13;2.78;;;22.70;45.40;;;;;;6269957;27;80779;-60
2024/01/18 07:30:36;;;;;;;8.43;3.85;;;22.70;45.50;;;;;;6270006;27;81322;-60
2024/01/18 07:33:37;;;;;;;4.93;2.60;;;22.60;45.40;;;;;;6269937;27;80594;-61
2024/01/18 07:36:37;;;;;;;6.45;2.45;;;22.70;45.80;;;;;;6276098;27;80724;-62
2024/01/18 07:39:38;;;;;;;5.45;2.75;;;22.70;45.90;;;;;;6275372;27;80379;-62
2024/01/18 07:42:38;;;;;;;4.35;2.53;;;22.70;45.30;;;;;;6269015;27;80426;-59
2024/01/18 07:45:39;;;;;;;9.05;3.08;;;22.70;45.40;;;;;;6272289;27;80378;-59
2024/01/18 07:48:39;;;;;;;8.63;2.85;;;22.70;45.30;;;;;;6276256;27;82092;-61
2024/01/18 07:51:40;;;;;;;8.43;3.67;;;22.70;45.30;;;;;;6272888;27;80693;-62
2024/01/18 07:54:40;;;;;;;5.97;2.80;;;22.70;45.20;;;;;;6263563;27;80463;-58
2024/01/18 07:57:41;;;;;;;5.13;2.75;;;22.70;45.40;;;;;;6248585;27;80537;-59
2024/01/18 08:00:42;;;;;;;7.05;3.38;;;22.70;45.30;;;;;;6261915;27;80525;-57
2024/01/18 08:03:42;;;;;;;7.25;3.20;;;22.60;45.20;;;;;;6247912;27;80503;-57
2024/01/18 08:06:43;;;;;;;4.13;2.67;;;22.60;45.20;;;;;;6256290;27;80366;-53
2024/01/18 08:09:43;;;;;;;4.90;2.60;;;22.60;45.20;;;;;;6247239;27;82600;-59
2024/01/18 08:12:44;;;;;;;4.78;3.00;;;22.60;45.20;;;;;;6247648;27;81597;-50
2024/01/18 08:15:45;;;;;;;4.40;2.72;;;22.60;45.30;;;;;;6248469;27;80884;-52
2024/01/18 08:18:46;;;;;;;4.20;2.70;;;22.60;45.40;;;;;;6250188;27;81782;-51
2024/01/18 08:21:47;;;;;;;4.70;2.72;;;22.60;45.10;;;;;;6251381;27;81255;-50
2024/01/18 08:24:48;;;;;;;5.20;2.70;;;22.50;45.20;;;;;;6250553;27;80345;-51
2024/01/18 08:27:53;;;;;;;3.55;2.20;;;22.50;45.20;;;;;;6250393;27;80283;-53
2024/01/18 08:30:53;;;;;;;4.13;2.20;;;22.50;45.40;;;;;;6263198;27;80365;-48
2024/01/18 08:33:53;;;;;;;5.07;2.70;;;22.50;45.30;;;;;;6270594;27;80580;-48
2024/01/18 08:36:54;;;;;;;4.30;2.20;;;22.50;45.10;;;;;;6245891;27;80507;-48
2024/01/18 08:39:54;;;;;;;4.07;2.08;;;22.40;45.20;;;;;;6224356;27;80512;-48
2024/01/18 08:42:56;;;;;;;6.43;2.60;;;22.50;45.10;;;;;;6224233;27;80702;-55
2024/01/18 08:45:57;;;;;;;5.78;2.40;;;22.50;45.10;;;;;;6240964;27;80919;-51
2024/01/18 08:48:57;;;;;;;7.20;2.78;;;22.50;45.20;;;;;;6243879;27;80397;-49
2024/01/18 08:51:58;;;;;;;6.85;2.60;;;22.50;45.10;;;;;;6239368;27;80439;-51
2024/01/18 08:54:59;;;;;;;8.95;2.42;;;22.60;45.20;;;;;;6245159;27;81000;-50
2024/01/18 08:57:59;;;;;;;6.82;2.78;;;22.60;45.10;;;;;;6247061;27;85937;-47
2024/01/18 09:01:00;;;;;;;13.55;3.30;;;22.60;45.10;;;;;;6253757;27;80489;-48
2024/01/18 09:04:01;;;;;;;5.63;2.60;;;22.70;45.80;;;;;;6243500;28;81065;-50
2024/01/18 09:07:02;;;;;;;7.82;2.67;;;22.70;45.00;;;;;;6244289;27;80420;-48
2024/01/18 09:10:03;;;;;;;20.40;3.05;;;22.70;44.90;;;;;;6243397;27;81328;-65
2024/01/18 09:13:04;;;;;;;15.18;2.83;;;22.80;45.00;;;;;;6242678;28;80770;-62
2024/01/18 09:16:04;;;;;;;11.68;3.22;;;22.80;44.90;;;;;;6244300;27;81825;-62
2024/01/18 09:19:05;;;;;;;14.25;4.00;;;22.80;44.80;;;;;;6241772;27;80953;-63
2024/01/18 09:22:05;;;;;;;10.65;3.00;;;22.80;44.80;;;;;;6246144;27;80944;-63
2024/01/18 09:25:05;;;;;;;5.88;2.80;;;22.80;44.80;;;;;;6248658;27;80601;-62
2024/01/18 09:28:07;;;;;;;9.77;2.85;;;22.80;44.90;;;;;;6243207;27;82680;-58
2024/01/18 09:31:09;;;;;;;9.80;3.10;;;22.80;44.70;;;;;;6241829;27;80399;-55
2024/01/18 09:34:10;;;;;;;6.10;2.70;;;22.90;44.80;;;;;;6243980;27;85180;-52
2024/01/18 09:37:11;;;;;;;5.20;2.85;;;22.90;44.80;;;;;;6275456;27;80355;-54
2024/01/18 09:40:11;;;;;;;9.55;3.03;;;22.90;45.00;;;;;;6278864;27;85113;-53
2024/01/18 09:43:12;;;;;;;8.02;3.58;;;22.90;44.90;;;;;;6277953;27;80582;-52
2024/01/18 09:46:12;;;;;;;10.25;2.90;;;22.90;44.90;;;;;;6274990;27;81429;-48
2024/01/18 09:49:13;;;;;;;9.65;3.47;;;23.00;44.90;;;;;;6274297;27;81420;-48
2024/01/18 09:52:13;;;;;;;4.80;2.92;;;23.00;44.80;;;;;;6275575;27;80362;-47
2024/01/18 09:55:14;;;;;;;8.70;3.20;;;23.00;44.80;;;;;;6278403;27;80628;-51
2024/01/18 09:58:14;;;;;;;6.55;3.30;;;23.00;44.70;;;;;;6277017;27;80132;-54
2024/01/18 10:01:16;;;;;;;8.60;2.95;;;23.10;44.80;;;;;;6267391;27;81132;-51
2024/01/18 10:04:17;;;;;;;4.00;2.55;;;23.10;44.80;;;;;;6270324;27;85308;-50
2024/01/18 10:07:17;;;;;;;4.88;3.45;;;23.10;44.70;;;;;;6264347;27;80443;-52
2024/01/18 10:10:18;;;;;;;4.78;2.90;;;23.10;44.70;;;;;;6263745;27;82027;-49
2024/01/18 10:13:19;;;;;;;6.38;3.22;;;23.10;44.70;;;;;;6263981;27;80527;-51
2024/01/18 10:16:19;;;;;;;6.13;3.00;;;23.10;44.70;;;;;;6258906;27;80431;-49
2024/01/18 10:19:20;;;;;;;6.93;4.50;;;23.10;44.60;;;;;;6270947;27;81068;-53
2024/01/18 10:22:20;;;;;;;4.20;3.13;;;23.10;44.70;;;;;;6263978;27;81144;-49
2024/01/18 10:25:21;;;;;;;9.75;3.78;;;23.10;44.60;;;;;;6263738;27;80283;-54
2024/01/18 10:28:21;;;;;;;4.53;3.40;;;23.10;44.50;;;;;;6269822;27;80452;-49
2024/01/18 10:31:22;;;;;;;5.78;3.50;;;23.20;44.90;;;;;;6266859;27;80744;-53
2024/01/18 10:34:22;;;;;;;5.80;2.97;;;23.20;45.00;;;;;;6275715;27;81392;-51
2024/01/18 10:37:23;;;;;;;4.95;3.53;;;23.20;45.00;;;;;;6265245;27;80339;-52
2024/01/18 10:40:23;;;;;;;4.80;3.70;;;23.20;44.70;;;;;;6279581;27;81537;-63
2024/01/18 10:43:24;;;;;;;5.50;3.67;;;23.20;44.60;;;;;;6252155;27;82292;-62
2024/01/18 10:46:24;;;;;;;9.30;4.65;;;23.20;44.50;;;;;;6254671;27;80388;-62
2024/01/18 10:49:25;;;;;;;9.93;5.38;;;23.20;44.50;;;;;;6253852;27;80940;-63
2024/01/18 10:52:25;;;;;;;10.25;6.60;;;23.20;44.40;;;;;;6254220;27;80453;-62
2024/01/18 10:55:26;;;;;;;14.05;8.48;;;23.20;44.50;;;;;;6264144;27;81639;-59
2024/01/18 10:58:26;;;;;;;16.55;9.13;;;23.20;44.70;;;;;;6251125;27;83675;-61
2024/01/18 11:01:27;;;;;;;16.30;8.85;;;23.20;44.50;;;;;;6256023;27;80381;-64
2024/01/18 11:04:27;;;;;;;15.10;9.30;;;23.20;44.50;;;;;;6256216;27;80361;-64
2024/01/18 11:07:28;;;;;;;20.10;9.93;;;23.20;44.50;;;;;;6238269;27;81929;-62
2024/01/18 11:10:28;;;;;;;15.88;8.45;;;23.20;44.40;;;;;;6255464;27;80520;-59
2024/01/18 11:13:29;;;;;;;13.63;7.40;;;23.20;45.10;;;;;;6253068;27;81027;-59
2024/01/18 11:16:30;;;;;;;11.20;6.45;;;23.20;45.70;;;;;;6254644;27;80665;-65
2024/01/18 11:19:30;;;;;;;12.00;6.88;;;23.20;45.70;;;;;;6256287;27;80782;-63
2024/01/18 11:22:31;;;;;;;10.45;6.75;;;23.20;46.60;;;;;;6264697;27;82078;-64
2024/01/18 11:25:33;;;;;;;11.85;6.10;;;23.20;47.10;;;;;;6278065;27;80805;-65
2024/01/18 11:28:33;;;;;;;11.88;5.40;;;23.20;47.60;;;;;;6274542;27;80366;-66
2024/01/18 11:31:34;;;;;;;12.52;5.60;;;23.20;47.80;;;;;;6277927;27;81311;-64
2024/01/18 11:34:37;;;;;;;10.18;4.82;;;23.20;48.20;;;;;;6277729;27;80467;-67
2024/01/18 11:37:38;;;;;;;7.90;5.45;;;23.20;48.60;;;;;;6261932;27;80701;-65
2024/01/18 11:40:38;;;;;;;7.75;4.88;;;23.20;49.40;;;;;;6253362;27;80914;-61
2024/01/18 11:43:39;;;;;;;8.80;5.28;;;23.20;49.40;;;;;;6252369;27;81041;-65
2024/01/18 11:46:39;;;;;;;10.73;5.57;;;23.20;49.50;;;;;;6255641;27;81168;-66
2024/01/18 11:49:40;;;;;;;10.00;5.78;;;23.20;49.50;;;;;;6255799;27;81566;-64
2024/01/18 11:52:41;;;;;;;9.85;5.72;;;23.20;50.00;;;;;;6256596;27;80864;-63
2024/01/18 11:55:41;;;;;;;8.05;4.90;;;23.20;50.10;;;;;;6268902;27;84015;-64
2024/01/18 11:58:42;;;;;;;11.63;5.38;;;23.20;50.00;;;;;;6274960;27;82338;-62
2024/01/18 12:01:43;;;;;;;9.40;5.68;;;23.20;50.00;;;;;;6257870;27;81786;-61
2024/01/18 12:04:43;;;;;;;8.63;5.97;;;23.20;50.00;;;;;;6255614;27;80113;-62
2024/01/18 12:07:44;;;;;;;8.15;5.25;;;23.20;50.00;;;;;;6261015;27;81421;-62
2024/01/18 12:10:45;;;;;;;9.05;5.22;;;23.20;50.20;;;;;;6273879;27;80790;-63
2024/01/18 12:13:45;;;;;;;7.43;5.40;;;23.20;50.20;;;;;;6270768;27;80381;-63
2024/01/18 12:16:46;;;;;;;8.25;5.32;;;23.20;50.20;;;;;;6269778;27;82136;-63
2024/01/18 12:19:46;;;;;;;8.60;5.80;;;23.20;50.30;;;;;;6269897;27;80970;-65
2024/01/18 12:22:47;;;;;;;7.40;5.38;;;23.20;50.20;;;;;;6269317;27;82326;-62
2024/01/18 12:25:48;;;;;;;10.05;5.85;;;23.20;50.40;;;;;;6271746;27;82189;-62
2024/01/18 12:28:49;;;;;;;9.82;5.25;;;23.20;50.40;;;;;;6265218;27;80893;-62
2024/01/18 12:31:49;;;;;;;9.85;6.65;;;23.20;50.50;;;;;;6270666;27;83514;-62
2024/01/18 12:34:50;;;;;;;8.15;5.90;;;23.20;50.40;;;;;;6270703;27;80768;-62
2024/01/18 12:37:50;;;;;;;9.25;5.85;;;23.20;50.40;;;;;;6272278;27;80640;-61
2024/01/18 12:40:51;;;;;;;8.50;6.00;;;23.20;50.60;;;;;;6271814;27;82915;-61
2024/01/18 12:43:51;;;;;;;9.43;6.13;;;23.20;50.70;;;;;;6272575;27;80294;-62
2024/01/18 12:46:52;;;;;;;11.10;6.57;;;23.20;50.70;;;;;;6272852;27;81561;-61
2024/01/18 12:49:52;;;;;;;9.35;6.13;;;23.20;51.20;;;;;;6267716;27;80084;-55
2024/01/18 12:52:53;;;;;;;9.80;7.15;;;23.20;51.30;;;;;;6263540;27;80405;-55
2024/01/18 12:55:53;;;;;;;8.15;6.15;;;23.20;52.10;;;;;;6265981;27;80343;-51
2024/01/18 12:58:53;;;;;;;13.07;7.05;;;23.20;52.50;;;;;;6276622;27;80696;-56
2024/01/18 13:01:54;;;;;;;10.15;6.85;;;23.20;53.50;;;;;;6267589;27;80410;-55
2024/01/18 13:04:55;;;;;;;10.60;7.28;;;23.20;53.30;;;;;;6265975;27;80583;-52
2024/01/18 13:07:55;;;;;;;9.93;7.10;;;23.10;53.80;;;;;;6268691;27;82428;-56
2024/01/18 13:10:56;;;;;;;10.02;6.80;;;23.20;53.80;;;;;;6258885;27;82243;-52
2024/01/18 13:13:57;;;;;;;9.68;6.88;;;23.20;54.00;;;;;;6261957;27;80258;-53
2024/01/18 13:16:57;;;;;;;11.77;8.25;;;23.20;53.80;;;;;;6259702;27;81041;-56
2024/01/18 13:19:58;;;;;;;10.07;6.68;;;23.20;55.10;;;;;;6267648;27;81137;-58
2024/01/18 13:22:58;;;;;;;15.20;10.07;;;23.20;55.40;;;;;;6267076;27;80723;-55
2024/01/18 13:25:59;;;;;;;18.08;13.18;;;23.10;53.80;;;;;;6266062;27;83206;-56
2024/01/18 13:28:59;;;;;;;23.58;15.70;;;23.00;52.40;;;;;;6254636;27;83196;-57
2024/01/18 13:32:00;;;;;;;24.73;16.90;;;22.90;51.70;;;;;;6260769;27;83441;-57
2024/01/18 13:35:00;;;;;;;25.40;16.35;;;22.80;50.70;;;;;;6264380;27;84107;-58
2024/01/18 13:38:01;;;;;;;23.15;16.90;;;22.70;49.80;;;;;;6255061;27;84067;-57
2024/01/18 13:41:01;;;;;;;26.33;17.38;;;22.60;49.40;;;;;;6266953;27;84171;-57
2024/01/18 13:44:02;;;;;;;26.55;17.83;;;22.50;49.20;;;;;;6262534;27;83652;-58
2024/01/18 13:47:03;;;;;;;25.60;18.70;;;22.40;48.80;;;;;;6271155;27;83257;-58
2024/01/18 13:50:03;;;;;;;26.85;17.92;;;22.40;48.70;;;;;;6273031;27;82800;-57
2024/01/18 13:53:04;;;;;;;24.90;18.05;;;22.30;48.40;;;;;;6273033;27;83019;-57
2024/01/18 13:56:05;;;;;;;28.15;18.55;;;22.20;48.00;;;;;;6273865;27;86225;-57
2024/01/18 13:59:06;;;;;;;24.98;18.02;;;22.10;47.90;;;;;;6260713;27;83052;-56
2024/01/18 14:02:07;;;;;;;25.17;18.27;;;22.10;47.70;;;;;;6272653;27;88046;-58
2024/01/18 14:05:08;;;;;;;29.42;20.10;;;22.00;47.90;;;;;;6272120;27;83189;-54
2024/01/18 14:08:08;;;;;;;28.50;18.27;;;21.90;47.70;;;;;;6267013;27;84787;-55
2024/01/18 14:11:09;;;;;;;22.60;15.75;;;21.90;49.20;;;;;;6274588;27;83369;-58
2024/01/18 14:14:09;;;;;;;26.23;15.02;;;22.00;50.10;;;;;;6271345;27;84896;-57
2024/01/18 14:17:10;;;;;;;20.50;13.30;;;22.10;51.80;;;;;;6263956;27;83219;-55
2024/01/18 14:20:11;;;;;;;21.38;13.68;;;22.20;52.30;;;;;;6265117;27;84659;-59
2024/01/18 14:23:11;;;;;;;19.63;12.88;;;22.20;52.80;;;;;;6269385;27;88545;-58
2024/01/18 14:26:14;;;;;;;16.88;11.93;;;22.30;54.00;;;;;;6273157;27;83351;-59
2024/01/18 14:29:14;;;;;;;21.67;11.85;;;22.30;54.10;;;;;;6264787;27;82996;-57
2024/01/18 14:32:15;;;;;;;21.70;12.70;;;22.40;53.90;;;;;;6276416;27;83372;-58
2024/01/18 14:35:15;;;;;;;17.80;12.55;;;22.40;54.50;;;;;;6274282;27;82991;-58
2024/01/18 14:38:16;;;;;;;19.80;11.65;;;22.50;55.30;;;;;;6256426;27;84445;-58
2024/01/18 14:41:16;;;;;;;18.88;12.10;;;22.50;55.10;;;;;;6272812;27;84064;-58
2024/01/18 14:44:17;;;;;;;19.45;11.50;;;22.50;54.90;;;;;;6267160;27;83403;-60
2024/01/18 14:47:17;;;;;;;19.13;11.65;;;22.50;55.30;;;;;;6274709;27;83136;-59
2024/01/18 14:50:17;;;;;;;20.55;12.00;;;22.60;55.40;;;;;;6273749;27;82971;-60
2024/01/18 14:53:18;;;;;;;16.67;11.70;;;22.60;56.00;;;;;;6267509;27;83020;-58
2024/01/18 14:56:18;;;;;;;17.20;11.20;;;22.60;56.30;;;;;;6270215;27;82913;-59
2024/01/18 14:59:19;;;;;;;14.95;11.63;;;22.60;56.20;;;;;;6273745;27;83527;-60
2024/01/18 15:02:19;;;;;;;18.50;11.82;;;22.60;56.10;;;;;;6272409;27;83345;-54
2024/01/18 15:05:20;;;;;;;16.45;11.27;;;22.60;56.30;;;;;;6270422;27;83200;-58
2024/01/18 15:08:20;;;;;;;18.35;11.55;;;22.60;56.70;;;;;;6267337;27;84350;-59
2024/01/18 15:11:21;;;;;;;18.10;11.20;;;22.70;56.30;;;;;;6263839;27;88893;-58
2024/01/18 15:14:21;;;;;;;16.98;11.00;;;22.70;56.60;;;;;;6251324;27;89817;-59
2024/01/18 15:17:22;;;;;;;15.52;10.43;;;22.70;55.70;;;;;;6272160;27;82999;-59
2024/01/18 15:20:23;;;;;;;14.68;10.48;;;22.70;55.40;;;;;;6268514;27;83121;-57
2024/01/18 15:23:23;;;;;;;15.07;10.40;;;22.70;55.50;;;;;;6271382;27;83106;-58
2024/01/18 15:26:24;;;;;;;17.08;10.77;;;22.80;56.20;;;;;;6261790;27;83323;-58
2024/01/18 15:29:24;;;;;;;16.10;10.50;;;22.80;56.00;;;;;;6267682;27;83678;-60
2024/01/18 15:32:25;;;;;;;18.13;11.30;;;22.80;56.10;;;;;;6230478;27;84235;-61
2024/01/18 15:35:25;;;;;;;17.95;11.43;;;22.90;55.80;;;;;;6268878;27;85571;-58